Time;durP1;ratioP1;P1;durP2;ratioP2;P2;SDS_P1;SDS_P2;PMS_P1;PMS_P2;Temp;Humidity;BMP_temperature;BMP_pressure;BME280_temperature;BME280_humidity;BME280_pressure;Samples;Min_cycle;Max_cycle;Signal;HPM_P1;HPM_P2
2022/04/27 00:00:20;;;;;;;3.25;2.90;;;21.20;49.20;;;;;;1866205;77;21121;-73
2022/04/27 00:02:48;;;;;;;5.55;2.85;;;21.20;49.10;;;;;;1808667;78;21172;-73
2022/04/27 00:05:15;;;;;;;4.10;3.02;;;21.20;49.20;;;;;;1816171;79;21608;-75
2022/04/27 00:07:42;;;;;;;3.60;2.67;;;21.20;49.10;;;;;;1816313;79;21112;-74
2022/04/27 00:10:10;;;;;;;4.10;3.00;;;21.20;49.10;;;;;;1816163;79;21507;-73
2022/04/27 00:12:38;;;;;;;4.60;2.98;;;21.20;49.10;;;;;;1816395;79;21084;-74
2022/04/27 00:15:06;;;;;;;4.62;2.92;;;21.20;49.10;;;;;;1816136;79;21104;-75
2022/04/27 00:17:33;;;;;;;5.60;3.17;;;21.20;49.10;;;;;;1821827;77;21153;-74
2022/04/27 00:20:00;;;;;;;4.67;3.15;;;21.20;49.10;;;;;;1846240;77;21104;-74
2022/04/27 00:22:28;;;;;;;4.00;3.10;;;21.20;49.10;;;;;;1846667;77;21093;-74
2022/04/27 00:25:00;;;;;;;3.42;2.75;;;21.20;49.10;;;;;;1846809;77;21057;-74
2022/04/27 00:27:24;;;;;;;5.17;3.42;;;21.20;49.00;;;;;;1845875;76;21124;-73
2022/04/27 00:29:51;;;;;;;4.25;3.10;;;21.20;49.00;;;;;;1846751;77;21519;-73
2022/04/27 00:32:18;;;;;;;5.87;3.10;;;21.20;49.00;;;;;;1822107;77;21136;-73
2022/04/27 00:34:46;;;;;;;3.92;3.05;;;21.20;49.00;;;;;;1816168;79;22229;-74
2022/04/27 00:37:13;;;;;;;4.65;2.80;;;21.20;49.00;;;;;;1816163;79;21089;-75
2022/04/27 00:39:40;;;;;;;5.92;3.22;;;21.10;48.90;;;;;;1816015;78;21554;-74
2022/04/27 00:42:19;;;;;;;5.83;3.00;;;21.10;48.90;;;;;;1816423;79;21104;-73
2022/04/27 00:44:47;;;;;;;3.47;2.75;;;21.20;49.00;;;;;;1816434;79;21202;-73
2022/04/27 00:47:15;;;;;;;4.28;2.77;;;21.10;48.90;;;;;;1818082;77;21119;-75
2022/04/27 00:49:50;;;;;;;2.90;2.60;;;21.10;48.90;;;;;;1846658;77;21077;-74
2022/04/27 00:52:17;;;;;;;4.50;2.58;;;21.10;48.90;;;;;;1846586;77;21120;-73
2022/04/27 00:54:47;;;;;;;3.67;2.90;;;21.10;48.90;;;;;;1846847;77;21065;-74
2022/04/27 00:57:14;;;;;;;2.87;2.55;;;21.10;48.80;;;;;;1846578;76;22344;-74
2022/04/27 00:59:41;;;;;;;3.47;3.00;;;21.10;48.80;;;;;;1846427;77;21148;-73
2022/04/27 01:02:09;;;;;;;5.30;2.90;;;21.10;48.90;;;;;;1879794;75;21103;-74
2022/04/27 01:04:37;;;;;;;3.00;2.58;;;21.10;48.80;;;;;;1893474;75;21101;-73
2022/04/27 01:07:05;;;;;;;4.37;2.75;;;21.10;48.80;;;;;;1894145;76;21115;-74
2022/04/27 01:09:33;;;;;;;4.28;2.62;;;21.10;48.80;;;;;;1894442;75;21130;-74
2022/04/27 01:12:01;;;;;;;4.53;3.10;;;21.10;48.70;;;;;;1894288;76;21176;-75
2022/04/27 01:14:28;;;;;;;3.27;2.58;;;21.10;48.80;;;;;;1894269;76;21180;-75
2022/04/27 01:16:56;;;;;;;8.95;3.30;;;21.10;48.70;;;;;;1893918;76;21165;-73
2022/04/27 01:19:26;;;;;;;5.40;3.33;;;21.10;48.70;;;;;;1863355;76;21108;-73
2022/04/27 01:21:54;;;;;;;3.80;2.90;;;21.10;48.70;;;;;;1862298;77;21166;-75
2022/04/27 01:24:27;;;;;;;3.12;2.50;;;21.10;48.70;;;;;;1862588;77;21107;-73
2022/04/27 01:26:52;;;;;;;4.00;3.05;;;21.10;48.70;;;;;;1860597;77;21171;-74
2022/04/27 01:29:22;;;;;;;3.12;2.58;;;21.10;48.70;;;;;;1862397;77;21496;-74
2022/04/27 01:31:50;;;;;;;3.05;2.55;;;21.10;48.70;;;;;;1881912;76;21047;-73
2022/04/27 01:34:18;;;;;;;2.50;2.30;;;21.10;48.60;;;;;;1894007;75;21103;-74
2022/04/27 01:36:45;;;;;;;4.03;3.08;;;21.00;48.50;;;;;;1894404;76;21661;-73
2022/04/27 01:39:13;;;;;;;4.85;3.22;;;21.00;48.50;;;;;;1894399;76;21126;-75
2022/04/27 01:41:40;;;;;;;4.05;3.17;;;21.00;48.50;;;;;;1893836;76;21602;-73
2022/04/27 01:44:07;;;;;;;3.08;2.60;;;21.00;48.50;;;;;;1893509;76;21126;-73
2022/04/27 01:46:35;;;;;;;4.03;2.87;;;21.00;48.50;;;;;;1894134;76;22257;-75
2022/04/27 01:49:02;;;;;;;4.20;2.80;;;21.00;48.50;;;;;;1868550;76;21104;-74
2022/04/27 01:54:17;;;;;;;3.17;2.85;;;21.00;48.50;;;;;;1862319;77;21088;-74
2022/04/27 01:56:47;;;;;;;3.80;2.67;;;21.00;48.50;;;;;;1862853;77;21069;-75
2022/04/27 01:59:14;;;;;;;3.45;3.12;;;21.00;48.50;;;;;;1862723;77;21388;-73
2022/04/27 02:01:42;;;;;;;3.33;2.80;;;21.00;48.50;;;;;;1879967;76;21713;-74
2022/04/27 02:04:09;;;;;;;2.83;2.30;;;21.00;48.50;;;;;;1900792;75;21082;-75
2022/04/27 02:06:37;;;;;;;3.58;2.83;;;21.00;48.50;;;;;;1909489;75;22144;-75
2022/04/27 02:09:04;;;;;;;3.75;2.70;;;21.00;48.50;;;;;;1909677;75;21039;-75
2022/04/27 02:11:33;;;;;;;2.62;2.42;;;21.00;48.50;;;;;;1909698;75;21130;-73
2022/04/27 02:14:00;;;;;;;3.72;2.92;;;21.00;48.50;;;;;;1909900;75;21062;-73
2022/04/27 02:16:29;;;;;;;2.60;2.33;;;20.90;48.40;;;;;;1910071;75;21114;-73
2022/04/27 02:18:56;;;;;;;4.12;3.00;;;21.00;48.50;;;;;;1885297;75;21197;-75
2022/04/27 02:21:25;;;;;;;4.45;2.47;;;21.00;48.50;;;;;;1877604;76;21781;-73
2022/04/27 02:23:53;;;;;;;2.98;2.62;;;21.00;48.50;;;;;;1877659;76;21071;-73
2022/04/27 02:26:21;;;;;;;2.85;2.42;;;21.00;48.40;;;;;;1877344;76;21057;-75
2022/04/27 02:28:48;;;;;;;3.02;2.40;;;20.90;48.40;;;;;;1877305;76;21676;-75
2022/04/27 02:31:35;;;;;;;3.00;2.70;;;21.00;48.40;;;;;;1889637;75;21086;-74
2022/04/27 02:34:02;;;;;;;2.67;2.45;;;21.00;48.40;;;;;;1885735;74;21105;-64
2022/04/27 02:36:29;;;;;;;2.95;2.50;;;21.00;48.40;;;;;;1885005;75;21215;-65
2022/04/27 02:38:57;;;;;;;4.47;3.02;;;20.90;48.40;;;;;;1884991;76;21112;-65
2022/04/27 02:41:24;;;;;;;3.72;2.37;;;20.90;48.30;;;;;;1884568;76;21198;-64
2022/04/27 02:43:51;;;;;;;2.75;2.35;;;20.90;48.40;;;;;;1884566;76;21045;-64
2022/04/27 02:46:19;;;;;;;2.92;2.12;;;20.90;48.30;;;;;;1884756;75;21207;-65
2022/04/27 02:51:51;;;;;;;2.67;2.47;;;20.90;48.30;;;;;;1883419;76;21132;-65
2022/04/27 02:54:20;;;;;;;3.20;2.90;;;20.90;48.40;;;;;;1883462;75;21082;-68
2022/04/27 02:56:47;;;;;;;3.25;2.95;;;20.90;48.40;;;;;;1883618;76;21133;-64
2022/04/27 02:59:15;;;;;;;2.87;2.35;;;20.90;48.30;;;;;;1883319;76;21086;-64
2022/04/27 03:01:42;;;;;;;3.33;2.77;;;20.90;48.30;;;;;;1883946;75;21101;-65
2022/04/27 03:04:10;;;;;;;2.60;2.37;;;20.90;48.40;;;;;;1885222;76;21097;-65
2022/04/27 03:06:37;;;;;;;5.37;2.90;;;20.90;48.30;;;;;;1885313;76;21085;-65
2022/04/27 03:09:04;;;;;;;3.05;2.50;;;20.90;48.30;;;;;;1885232;76;21081;-65
2022/04/27 03:11:32;;;;;;;2.72;2.35;;;20.80;48.30;;;;;;1884892;76;21121;-65
2022/04/27 03:13:59;;;;;;;2.98;2.67;;;20.90;48.30;;;;;;1884838;76;21081;-66
2022/04/27 03:16:26;;;;;;;3.90;2.55;;;20.90;48.30;;;;;;1884709;76;21213;-65
2022/04/27 03:18:54;;;;;;;2.92;2.35;;;20.90;48.40;;;;;;1883346;76;21132;-65
2022/04/27 03:21:21;;;;;;;3.45;2.50;;;20.90;48.30;;;;;;1883199;76;21097;-65
2022/04/27 03:23:48;;;;;;;2.90;2.47;;;20.90;48.30;;;;;;1883212;76;21113;-64
2022/04/27 03:26:16;;;;;;;2.62;2.40;;;20.90;48.30;;;;;;1883302;75;21113;-65
2022/04/27 03:28:43;;;;;;;2.40;2.20;;;20.90;48.30;;;;;;1883669;76;21175;-65
2022/04/27 03:31:10;;;;;;;2.60;2.40;;;20.90;48.30;;;;;;1883787;76;21145;-65
2022/04/27 03:33:38;;;;;;;3.00;2.42;;;20.90;48.30;;;;;;1874753;75;21702;-66
2022/04/27 03:36:08;;;;;;;2.92;2.65;;;20.80;48.20;;;;;;1869391;77;21149;-67
2022/04/27 03:38:36;;;;;;;3.77;2.70;;;20.80;48.20;;;;;;1869378;76;21164;-68
2022/04/27 03:41:03;;;;;;;2.52;2.30;;;20.80;48.30;;;;;;1869500;76;21735;-66
2022/04/27 03:43:30;;;;;;;3.17;2.42;;;20.80;48.20;;;;;;1869515;77;21097;-66
2022/04/27 03:45:58;;;;;;;2.75;2.30;;;20.80;48.20;;;;;;1869582;77;21694;-66
2022/04/27 03:48:25;;;;;;;2.50;2.30;;;20.80;48.20;;;;;;1869054;77;21120;-65
2022/04/27 03:50:53;;;;;;;3.25;2.95;;;20.80;48.20;;;;;;1868081;77;21218;-68
2022/04/27 03:53:20;;;;;;;2.30;2.10;;;20.80;48.20;;;;;;1867656;77;21082;-66
2022/04/27 03:55:48;;;;;;;2.55;2.35;;;20.80;48.20;;;;;;1867839;75;21663;-68
2022/04/27 03:58:15;;;;;;;2.85;2.55;;;20.80;48.20;;;;;;1867902;77;21094;-64
2022/04/27 04:00:42;;;;;;;4.28;2.20;;;20.80;48.20;;;;;;1868131;77;21666;-65
2022/04/27 04:03:11;;;;;;;4.70;2.50;;;20.80;48.20;;;;;;1869335;77;21106;-69
2022/04/27 04:05:39;;;;;;;2.62;2.15;;;20.80;48.20;;;;;;1869391;76;21116;-69
2022/04/27 04:08:06;;;;;;;2.67;2.15;;;20.80;48.20;;;;;;1869922;77;21151;-69
2022/04/27 04:10:34;;;;;;;2.62;2.35;;;20.80;48.20;;;;;;1869522;77;22397;-64
2022/04/27 04:13:02;;;;;;;4.00;2.30;;;20.80;48.20;;;;;;1869411;77;21061;-65
2022/04/27 04:15:29;;;;;;;2.83;2.10;;;20.80;48.20;;;;;;1869347;76;21207;-67
2022/04/27 04:17:56;;;;;;;2.85;2.12;;;20.80;48.20;;;;;;1868899;76;21117;-64
2022/04/27 04:20:24;;;;;;;3.12;2.33;;;20.80;48.20;;;;;;1867844;77;21179;-66
2022/04/27 04:22:51;;;;;;;2.85;2.50;;;20.80;48.10;;;;;;1868158;77;22248;-64
2022/04/27 04:30:49;;;;;;;2.62;2.30;;;20.80;48.20;;;;;;1874359;76;21574;-66
2022/04/27 04:33:16;;;;;;;2.55;2.12;;;20.80;48.10;;;;;;1870954;75;21145;-65
2022/04/27 04:35:44;;;;;;;2.58;2.17;;;20.80;48.10;;;;;;1869356;77;21698;-67
2022/04/27 04:38:11;;;;;;;2.60;2.22;;;20.80;48.10;;;;;;1869094;77;21110;-68
2022/04/27 04:40:39;;;;;;;3.37;2.37;;;20.80;48.10;;;;;;1846033;76;21176;-64
2022/04/27 04:43:06;;;;;;;3.92;2.50;;;20.80;48.10;;;;;;1843039;76;21178;-65
2022/04/27 04:45:33;;;;;;;2.58;2.25;;;20.80;48.10;;;;;;1838805;77;21216;-66
2022/04/27 04:48:01;;;;;;;2.25;2.05;;;20.80;48.10;;;;;;1850218;75;21190;-64
2022/04/27 04:50:29;;;;;;;2.40;2.17;;;20.80;48.10;;;;;;1881553;75;21100;-65
2022/04/27 04:52:56;;;;;;;3.10;2.37;;;20.80;48.10;;;;;;1869980;76;21165;-68
2022/04/27 04:55:23;;;;;;;3.17;2.25;;;20.80;48.10;;;;;;1869808;75;21081;-64
2022/04/27 04:57:50;;;;;;;2.33;1.90;;;20.80;48.10;;;;;;1869643;77;21179;-63
2022/04/27 05:00:18;;;;;;;4.55;2.67;;;20.80;48.10;;;;;;1869736;77;21376;-64
2022/04/27 05:02:45;;;;;;;3.52;2.72;;;20.80;48.00;;;;;;1867510;77;21109;-68
2022/04/27 05:05:13;;;;;;;3.45;2.42;;;20.80;48.00;;;;;;1867440;77;21715;-69
2022/04/27 05:07:40;;;;;;;3.22;2.30;;;20.80;48.00;;;;;;1868197;77;21098;-69
2022/04/27 05:10:08;;;;;;;3.35;2.17;;;20.80;48.00;;;;;;1868019;77;21544;-70
2022/04/27 05:12:38;;;;;;;2.62;2.25;;;20.80;48.10;;;;;;1868059;77;21175;-70
2022/04/27 05:15:06;;;;;;;4.78;2.58;;;20.80;48.00;;;;;;1868224;75;21067;-68
2022/04/27 05:17:33;;;;;;;4.95;2.42;;;20.80;48.00;;;;;;1867564;77;21644;-69
2022/04/27 05:20:01;;;;;;;6.12;2.12;;;20.80;48.00;;;;;;1867334;77;21180;-69
2022/04/27 05:22:33;;;;;;;3.17;2.37;;;20.80;48.00;;;;;;1867960;77;21110;-71
2022/04/27 05:25:04;;;;;;;8.20;2.60;;;20.80;48.00;;;;;;1868111;75;21194;-69
2022/04/27 05:27:31;;;;;;;;;;;20.80;48.00;;;;;;1870952;77;21136;-69
2022/04/27 05:32:44;;;;;;;4.47;2.47;;;20.80;48.00;;;;;;1869727;77;21121;-68
2022/04/27 05:35:11;;;;;;;4.70;2.00;;;20.80;48.00;;;;;;1871639;76;21610;-68
2022/04/27 05:37:39;;;;;;;3.12;2.17;;;20.80;48.20;;;;;;1871985;76;21136;-69
2022/04/27 05:40:06;;;;;;;3.90;2.72;;;20.80;48.00;;;;;;1871927;76;21167;-69
2022/04/27 05:42:35;;;;;;;3.12;2.27;;;20.80;48.00;;;;;;1872180;76;21114;-68
2022/04/27 05:45:02;;;;;;;3.25;2.22;;;20.80;48.00;;;;;;1872185;76;21141;-70
2022/04/27 05:47:30;;;;;;;3.65;2.33;;;20.80;48.40;;;;;;1872305;76;21109;-68
2022/04/27 05:49:57;;;;;;;4.90;2.55;;;20.80;48.00;;;;;;1870858;76;21133;-68
2022/04/27 05:52:24;;;;;;;3.25;2.33;;;20.80;47.90;;;;;;1870673;76;21117;-68
2022/04/27 05:54:52;;;;;;;4.00;2.08;;;20.70;47.90;;;;;;1870103;75;21128;-69
2022/04/27 05:57:19;;;;;;;6.85;2.40;;;20.80;47.90;;;;;;1870572;76;21105;-69
2022/04/27 05:59:47;;;;;;;4.97;2.58;;;20.80;47.90;;;;;;1870527;76;21529;-69
2022/04/27 06:02:14;;;;;;;3.62;2.33;;;20.80;47.80;;;;;;1871609;76;21157;-69
2022/04/27 06:04:42;;;;;;;5.00;2.40;;;20.80;47.90;;;;;;1872097;76;21537;-71
2022/04/27 06:07:09;;;;;;;3.80;2.50;;;20.80;47.80;;;;;;1871819;76;21109;-71
2022/04/27 06:09:36;;;;;;;3.52;2.27;;;20.70;47.80;;;;;;1871649;76;21093;-69
2022/04/27 06:12:05;;;;;;;6.33;3.17;;;20.80;47.80;;;;;;1871885;76;21187;-70
2022/04/27 06:14:32;;;;;;;6.62;2.95;;;20.80;47.80;;;;;;1871561;75;21121;-69
2022/04/27 06:17:00;;;;;;;3.87;2.40;;;20.80;47.80;;;;;;1871469;76;22257;-69
2022/04/27 06:19:27;;;;;;;4.97;2.90;;;20.80;47.70;;;;;;1870166;76;21078;-67
2022/04/27 06:21:54;;;;;;;6.75;2.80;;;20.80;47.80;;;;;;1869770;76;21548;-67
2022/04/27 06:24:21;;;;;;;4.67;2.52;;;20.80;47.70;;;;;;1870728;75;21071;-69
2022/04/27 06:26:49;;;;;;;12.13;3.17;;;20.80;47.60;;;;;;1870860;76;21646;-69
2022/04/27 06:29:16;;;;;;;5.08;2.50;;;20.80;47.70;;;;;;1869962;76;21105;-69
2022/04/27 06:31:45;;;;;;;8.15;3.10;;;20.80;47.70;;;;;;1871246;76;22351;-71
2022/04/27 06:34:13;;;;;;;6.28;2.33;;;20.80;47.70;;;;;;1871607;76;21148;-71
2022/04/27 06:36:40;;;;;;;6.97;3.10;;;20.80;48.30;;;;;;1872361;76;21884;-71
2022/04/27 06:39:12;;;;;;;9.00;3.27;;;20.80;47.80;;;;;;1872186;76;21077;-69
2022/04/27 06:41:36;;;;;;;8.38;3.45;;;20.80;47.70;;;;;;1871530;76;21121;-71
2022/04/27 06:44:03;;;;;;;8.30;3.40;;;20.80;47.70;;;;;;1871905;75;21235;-70
2022/04/27 06:46:31;;;;;;;6.12;2.90;;;20.80;47.70;;;;;;1871871;76;21563;-69
2022/04/27 06:48:58;;;;;;;13.00;3.50;;;20.80;47.70;;;;;;1870688;76;21171;-71
2022/04/27 06:51:26;;;;;;;9.63;3.25;;;20.80;47.60;;;;;;1870448;76;21694;-72
2022/04/27 06:53:53;;;;;;;9.70;2.92;;;20.80;47.60;;;;;;1870658;76;21149;-68
2022/04/27 06:56:20;;;;;;;7.42;3.12;;;20.80;47.70;;;;;;1870371;75;21098;-69
2022/04/27 06:58:48;;;;;;;10.65;3.42;;;20.80;47.60;;;;;;1870067;76;21149;-68
2022/04/27 07:01:17;;;;;;;5.40;3.00;;;20.80;47.80;;;;;;1871194;76;21175;-67
2022/04/27 07:03:44;;;;;;;10.75;3.75;;;20.90;47.70;;;;;;1871806;76;21208;-69
2022/04/27 07:06:12;;;;;;;7.62;2.95;;;20.90;47.70;;;;;;1872131;76;21145;-68
2022/04/27 07:08:39;;;;;;;8.00;3.17;;;20.90;47.70;;;;;;1872100;76;21092;-66
2022/04/27 07:11:07;;;;;;;9.83;3.33;;;20.90;47.70;;;;;;1872102;76;21138;-67
2022/04/27 07:13:34;;;;;;;6.92;3.05;;;20.80;47.70;;;;;;1872045;76;21117;-69
2022/04/27 07:16:01;;;;;;;11.43;3.58;;;20.70;48.00;;;;;;1872232;76;21136;-70
2022/04/27 07:18:30;;;;;;;6.53;2.87;;;20.80;48.10;;;;;;1871417;76;21107;-67
2022/04/27 07:20:58;;;;;;;8.83;3.37;;;20.80;48.00;;;;;;1870146;76;21101;-67
2022/04/27 07:23:25;;;;;;;9.85;3.65;;;20.80;47.90;;;;;;1871066;76;21097;-71
2022/04/27 07:25:52;;;;;;;8.78;2.90;;;20.80;47.90;;;;;;1870575;75;21759;-70
2022/04/27 07:28:20;;;;;;;15.18;3.40;;;20.80;47.80;;;;;;1870839;76;21137;-68
2022/04/27 07:30:47;;;;;;;5.70;3.20;;;20.90;47.90;;;;;;1871080;76;21048;-68
2022/04/27 07:33:14;;;;;;;16.37;3.25;;;20.90;47.90;;;;;;1872376;76;21543;-68
2022/04/27 07:35:42;;;;;;;10.43;3.62;;;20.90;47.90;;;;;;1870840;75;21113;-68
2022/04/27 07:38:09;;;;;;;7.90;3.10;;;20.80;47.80;;;;;;1869757;77;21109;-68
2022/04/27 07:40:37;;;;;;;6.40;2.50;;;20.90;47.90;;;;;;1869953;77;21187;-66
2022/04/27 07:43:04;;;;;;;6.97;3.47;;;20.90;48.00;;;;;;1869901;77;21199;-67
2022/04/27 07:45:31;;;;;;;10.98;3.42;;;20.90;48.00;;;;;;1869951;77;21392;-68
2022/04/27 07:47:59;;;;;;;5.97;3.02;;;20.90;48.00;;;;;;1868800;77;21183;-68
2022/04/27 07:50:26;;;;;;;5.40;3.67;;;20.90;48.00;;;;;;1867684;77;21137;-66
2022/04/27 07:52:56;;;;;;;10.43;3.42;;;20.90;48.00;;;;;;1868145;77;21161;-68
2022/04/27 07:55:22;;;;;;;6.20;3.42;;;20.90;48.00;;;;;;1868066;75;21166;-68
2022/04/27 07:57:50;;;;;;;6.80;2.98;;;20.90;48.00;;;;;;1867970;77;21203;-68
2022/04/27 08:00:17;;;;;;;9.03;2.98;;;20.90;47.90;;;;;;1867799;76;21130;-68
2022/04/27 08:02:45;;;;;;;5.70;2.85;;;20.90;47.90;;;;;;1869740;77;21066;-67
2022/04/27 08:05:14;;;;;;;8.08;3.37;;;20.90;47.90;;;;;;1869876;77;21215;-67
2022/04/27 08:07:48;;;;;;;7.20;3.92;;;20.90;47.90;;;;;;1869735;77;21140;-67
2022/04/27 08:10:17;;;;;;;5.37;2.75;;;20.90;47.90;;;;;;1869910;77;21178;-69
2022/04/27 08:12:47;;;;;;;8.70;3.65;;;20.90;47.90;;;;;;1869639;77;21113;-67
2022/04/27 08:15:15;;;;;;;8.05;3.10;;;20.90;47.90;;;;;;1869739;77;21141;-67
2022/04/27 08:18:01;;;;;;;9.58;3.27;;;20.90;47.90;;;;;;1869348;77;21551;-67
2022/04/27 08:23:17;;;;;;;7.50;3.37;;;20.90;47.80;;;;;;1868193;77;21141;-67
2022/04/27 08:25:45;;;;;;;6.00;3.40;;;21.00;48.00;;;;;;1868129;75;21129;-68
2022/04/27 08:28:12;;;;;;;4.40;2.65;;;20.90;47.90;;;;;;1867708;77;21118;-68
2022/04/27 08:30:41;;;;;;;6.90;3.17;;;21.00;47.90;;;;;;1867875;77;21098;-67
2022/04/27 08:33:08;;;;;;;6.95;3.25;;;21.00;47.90;;;;;;1869521;77;21136;-67
2022/04/27 08:35:40;;;;;;;4.72;3.40;;;21.00;47.90;;;;;;1870210;76;21156;-68
2022/04/27 08:38:05;;;;;;;3.72;2.77;;;21.00;47.90;;;;;;1870238;76;21563;-67
2022/04/27 08:40:36;;;;;;;3.15;2.45;;;21.00;47.90;;;;;;1871924;76;21093;-66
2022/04/27 08:43:03;;;;;;;;;;;21.00;47.90;;;;;;1875251;76;21175;-66
2022/04/27 08:45:32;;;;;;;7.08;2.67;;;21.00;47.90;;;;;;1872549;76;20168;-67
2022/04/27 08:47:59;;;;;;;5.03;3.05;;;21.00;47.80;;;;;;1871786;76;21195;-69
2022/04/27 08:50:27;;;;;;;6.40;3.45;;;21.00;48.00;;;;;;1870749;76;21070;-66
2022/04/27 08:52:55;;;;;;;6.62;3.17;;;21.00;47.90;;;;;;1870707;76;21082;-67
2022/04/27 08:55:23;;;;;;;5.35;3.20;;;21.00;47.90;;;;;;1870277;75;21161;-67
2022/04/27 08:57:50;;;;;;;5.25;3.30;;;21.00;48.00;;;;;;1870425;76;21658;-67
2022/04/27 09:00:18;;;;;;;5.65;3.12;;;21.00;48.00;;;;;;1870660;76;21098;-70
2022/04/27 09:02:46;;;;;;;5.00;2.85;;;21.00;48.00;;;;;;1872439;76;21064;-70
2022/04/27 09:05:18;;;;;;;6.47;3.05;;;21.00;48.00;;;;;;1872114;76;21222;-67
2022/04/27 09:07:53;;;;;;;5.45;3.42;;;21.10;48.10;;;;;;1872158;76;21121;-67
2022/04/27 09:10:22;;;;;;;4.35;2.87;;;21.00;48.00;;;;;;1872005;76;21198;-71
2022/04/27 09:12:51;;;;;;;3.90;3.50;;;21.00;48.30;;;;;;1871978;76;21376;-71
2022/04/27 09:15:21;;;;;;;5.60;3.35;;;21.10;48.40;;;;;;1872044;76;21506;-70
2022/04/27 09:20:55;;;;;;;4.70;2.70;;;21.00;47.90;;;;;;1870936;76;21192;-67
2022/04/27 09:23:23;;;;;;;4.62;3.05;;;21.00;47.90;;;;;;1870510;76;21175;-67
2022/04/27 09:25:53;;;;;;;5.20;3.20;;;21.00;48.00;;;;;;1870296;75;21557;-68
2022/04/27 09:28:22;;;;;;;7.42;2.72;;;21.00;48.00;;;;;;1870769;76;21101;-67
2022/04/27 09:30:50;;;;;;;5.05;3.27;;;21.10;48.10;;;;;;1870868;76;21427;-67
2022/04/27 09:33:33;;;;;;;7.03;3.10;;;21.00;48.00;;;;;;1872266;76;21097;-67
2022/04/27 09:36:00;;;;;;;3.47;3.00;;;21.00;48.00;;;;;;1872391;75;21121;-70
2022/04/27 09:38:29;;;;;;;4.10;3.00;;;21.00;48.00;;;;;;1872207;76;21660;-68
2022/04/27 09:40:59;;;;;;;4.25;3.20;;;21.10;48.00;;;;;;1872338;75;21055;-68
2022/04/27 09:43:45;;;;;;;4.10;3.08;;;21.10;48.00;;;;;;1872540;76;21184;-68
2022/04/27 09:46:32;;;;;;;5.92;2.92;;;21.10;48.00;;;;;;1871354;76;21106;-67
2022/04/27 09:49:09;;;;;;;4.37;2.90;;;21.10;48.00;;;;;;1873031;76;21054;-65
2022/04/27 09:51:49;;;;;;;3.70;2.67;;;21.10;48.00;;;;;;1872996;76;21140;-69
2022/04/27 09:54:23;;;;;;;5.72;3.20;;;21.10;48.00;;;;;;1872012;76;21117;-68
2022/04/27 09:56:57;;;;;;;5.22;3.33;;;21.10;48.00;;;;;;1842070;78;21207;-68
2022/04/27 09:59:30;;;;;;;2.80;2.33;;;21.10;48.00;;;;;;1842139;78;21238;-68
2022/04/27 10:01:59;;;;;;;3.77;2.70;;;21.10;48.00;;;;;;1822030;78;21133;-66
2022/04/27 10:04:30;;;;;;;4.00;3.33;;;21.10;48.10;;;;;;1811908;79;21098;-70
2022/04/27 10:06:59;;;;;;;4.45;3.47;;;21.10;47.90;;;;;;1811747;79;21600;-67
2022/04/27 10:09:27;;;;;;;4.95;3.30;;;21.10;48.00;;;;;;1811455;79;21133;-67
2022/04/27 10:11:56;;;;;;;5.30;3.15;;;21.10;47.90;;;;;;1811935;79;21117;-70
2022/04/27 10:14:23;;;;;;;6.60;3.27;;;21.10;48.00;;;;;;1811696;79;21134;-68
2022/04/27 10:16:50;;;;;;;3.37;3.08;;;21.10;48.00;;;;;;1811886;79;21164;-68
2022/04/27 10:19:18;;;;;;;3.95;3.22;;;21.10;48.00;;;;;;1832775;78;21130;-69
2022/04/27 10:22:01;;;;;;;3.72;3.00;;;21.10;48.10;;;;;;1833210;78;21147;-70
2022/04/27 10:24:37;;;;;;;5.10;2.80;;;21.10;48.00;;;;;;1830697;78;21110;-67
2022/04/27 10:27:19;;;;;;;3.83;3.17;;;21.10;48.00;;;;;;1816166;77;21193;-70
2022/04/27 10:30:04;;;;;;;4.17;2.98;;;21.10;48.00;;;;;;1815548;78;21144;-67
2022/04/27 10:32:40;;;;;;;7.15;3.05;;;21.10;48.00;;;;;;1823297;78;21200;-67
2022/04/27 10:35:19;;;;;;;3.75;3.05;;;21.10;48.10;;;;;;1835770;78;21274;-67
2022/04/27 10:37:53;;;;;;;3.58;2.80;;;21.10;48.20;;;;;;1823718;78;21149;-67
2022/04/27 10:40:29;;;;;;;4.55;3.12;;;21.10;48.20;;;;;;1827021;78;21149;-67
2022/04/27 10:43:16;;;;;;;4.30;3.30;;;21.10;48.20;;;;;;1834430;78;21113;-67
2022/04/27 10:45:44;;;;;;;5.30;3.45;;;21.10;48.10;;;;;;1818491;78;21169;-67
2022/04/27 10:48:16;;;;;;;3.10;2.80;;;21.10;48.70;;;;;;1838315;78;21149;-68
2022/04/27 10:51:03;;;;;;;4.67;3.25;;;21.10;48.00;;;;;;1828842;78;21125;-70
2022/04/27 10:53:32;;;;;;;3.17;2.83;;;21.20;47.90;;;;;;1809631;78;21271;-67
2022/04/27 10:55:59;;;;;;;4.25;2.98;;;21.20;48.00;;;;;;1833235;77;21133;-67
2022/04/27 10:58:32;;;;;;;4.05;2.83;;;21.20;47.90;;;;;;1864573;77;21563;-67
2022/04/27 11:01:06;;;;;;;6.70;3.25;;;21.20;48.00;;;;;;1855215;76;21149;-67
2022/04/27 11:03:35;;;;;;;4.75;3.10;;;21.20;48.00;;;;;;1833273;78;21579;-67
2022/04/27 11:06:07;;;;;;;4.08;3.05;;;21.20;48.00;;;;;;1833163;77;21626;-66
2022/04/27 11:09:11;;;;;;;3.95;2.80;;;21.20;48.10;;;;;;1833466;77;21129;-67
2022/04/27 11:11:53;;;;;;;3.52;2.98;;;21.20;48.20;;;;;;1833686;77;21118;-67
2022/04/27 11:14:22;;;;;;;4.15;3.00;;;21.20;48.40;;;;;;1832836;78;21229;-68
2022/04/27 11:16:49;;;;;;;4.45;2.85;;;21.20;48.40;;;;;;1832982;78;21130;-67
2022/04/27 11:19:18;;;;;;;3.55;2.95;;;21.20;48.60;;;;;;1806770;78;21516;-66
2022/04/27 11:21:50;;;;;;;3.85;2.70;;;21.20;48.50;;;;;;1803929;79;21081;-66
2022/04/27 11:24:15;;;;;;;3.30;2.75;;;21.10;48.40;;;;;;1803488;79;21125;-68
2022/04/27 11:26:45;;;;;;;4.03;3.27;;;21.20;48.40;;;;;;1804295;79;21587;-67
2022/04/27 11:29:15;;;;;;;6.75;4.08;;;21.10;48.30;;;;;;1804218;79;21121;-67
2022/04/27 11:31:43;;;;;;;5.70;3.33;;;21.10;48.30;;;;;;1820418;78;21771;-67
2022/04/27 11:34:25;;;;;;;4.85;2.62;;;21.10;48.30;;;;;;1833356;78;21166;-68
2022/04/27 11:36:53;;;;;;;3.80;2.98;;;21.20;48.40;;;;;;1833378;78;21556;-67
2022/04/27 11:39:24;;;;;;;4.22;3.30;;;21.20;48.30;;;;;;1833853;78;21219;-67
2022/04/27 11:42:01;;;;;;;4.78;3.25;;;21.10;48.30;;;;;;1833818;78;21113;-67
2022/04/27 11:44:29;;;;;;;4.15;2.90;;;21.10;48.20;;;;;;1822244;78;21123;-69
2022/04/27 11:46:57;;;;;;;3.30;3.00;;;21.10;48.30;;;;;;1814104;79;21146;-68
2022/04/27 11:49:24;;;;;;;3.52;2.98;;;21.10;48.20;;;;;;1840577;77;21564;-68
2022/04/27 11:51:52;;;;;;;4.17;2.85;;;21.20;48.20;;;;;;1842061;78;21148;-66
2022/04/27 11:54:29;;;;;;;3.20;2.55;;;21.10;48.30;;;;;;1840966;78;21132;-69
2022/04/27 11:57:00;;;;;;;3.62;2.87;;;21.10;48.20;;;;;;1841234;78;22218;-68
2022/04/27 11:59:42;;;;;;;3.85;3.02;;;21.10;48.30;;;;;;1842203;78;21628;-69
2022/04/27 12:02:10;;;;;;;4.10;3.20;;;21.10;48.30;;;;;;1833828;78;21126;-68
2022/04/27 12:04:37;;;;;;;4.67;3.37;;;21.10;48.40;;;;;;1831628;78;22325;-70
2022/04/27 12:07:14;;;;;;;3.17;2.80;;;21.10;48.30;;;;;;1831527;78;21126;-66
2022/04/27 12:09:41;;;;;;;3.87;3.10;;;21.10;48.30;;;;;;1832366;78;21599;-67
2022/04/27 12:12:13;;;;;;;4.97;3.27;;;21.10;48.30;;;;;;1832499;78;21143;-68
2022/04/27 12:14:39;;;;;;;3.37;3.08;;;21.10;48.30;;;;;;1832076;78;21153;-66
2022/04/27 12:17:11;;;;;;;3.15;2.80;;;21.10;48.30;;;;;;1832498;78;21121;-67
2022/04/27 12:19:36;;;;;;;3.70;3.12;;;21.10;48.20;;;;;;1832297;78;21130;-70
2022/04/27 12:22:13;;;;;;;3.33;3.02;;;21.10;48.20;;;;;;1833751;78;21134;-70
2022/04/27 12:24:44;;;;;;;4.85;3.40;;;21.10;48.20;;;;;;1833869;78;21138;-67
2022/04/27 12:27:19;;;;;;;4.15;3.22;;;21.10;48.20;;;;;;1833929;78;21183;-69
2022/04/27 12:29:47;;;;;;;3.87;3.33;;;21.10;48.20;;;;;;1833688;78;21175;-68
2022/04/27 12:32:14;;;;;;;3.20;2.72;;;21.10;48.20;;;;;;1832780;78;21133;-68
2022/04/27 12:37:32;;;;;;;3.70;3.22;;;21.10;48.20;;;;;;1810630;78;21671;-68
2022/04/27 12:40:15;;;;;;;3.58;3.10;;;21.10;48.30;;;;;;1804677;78;21631;-68
2022/04/27 12:43:02;;;;;;;4.67;3.10;;;21.10;48.30;;;;;;1803264;79;21130;-68
2022/04/27 12:45:29;;;;;;;3.72;3.33;;;21.10;48.30;;;;;;1803270;78;21631;-67
2022/04/27 12:47:57;;;;;;;4.03;3.20;;;21.10;48.30;;;;;;1813462;76;21211;-70
2022/04/27 12:50:24;;;;;;;3.70;3.00;;;21.10;48.40;;;;;;1832965;78;21385;-67
2022/04/27 12:52:52;;;;;;;3.20;2.75;;;21.10;48.30;;;;;;1833253;78;21191;-69
2022/04/27 12:55:20;;;;;;;4.37;3.52;;;21.00;48.20;;;;;;1833464;77;21141;-68
2022/04/27 12:57:51;;;;;;;3.17;2.67;;;21.00;48.20;;;;;;1833423;78;21297;-67
2022/04/27 13:00:20;;;;;;;4.00;2.95;;;21.10;48.30;;;;;;1833161;78;21141;-68
2022/04/27 13:02:48;;;;;;;5.03;3.50;;;21.10;48.20;;;;;;1803766;79;21143;-68
2022/04/27 13:05:15;;;;;;;3.65;3.00;;;21.10;48.20;;;;;;1803287;79;22325;-70
2022/04/27 13:07:42;;;;;;;3.30;3.00;;;21.00;48.10;;;;;;1803152;79;21118;-67
2022/04/27 13:12:56;;;;;;;4.25;3.17;;;21.00;48.10;;;;;;1803311;79;21169;-67
2022/04/27 13:15:23;;;;;;;2.92;2.70;;;21.10;48.10;;;;;;1803649;79;21157;-68
2022/04/27 13:17:50;;;;;;;5.17;3.10;;;21.00;48.00;;;;;;1812553;78;21082;-67
2022/04/27 13:20:18;;;;;;;4.22;3.15;;;21.00;48.00;;;;;;1833715;78;21601;-67
2022/04/27 13:22:45;;;;;;;4.15;3.33;;;21.10;48.10;;;;;;1833977;78;21415;-67